createdAt,value
2022-11-23T00:01:37.628Z,98766.88
2022-11-23T00:04:10.228Z,98762.38
2022-11-23T00:06:36.691Z,98756.50
2022-11-23T00:09:03.411Z,98757.47
2022-11-23T00:11:29.871Z,98759.59
2022-11-23T00:13:57.104Z,98759.31
2022-11-23T00:16:26.146Z,98756.50
2022-11-23T00:18:57.587Z,98763.16
2022-11-23T00:21:25.675Z,98764.09
2022-11-23T00:23:52.457Z,98769.38
2022-11-23T00:26:19.343Z,98772.97
2022-11-23T00:28:46.440Z,98767.66
2022-11-23T00:31:15.251Z,98756.53
2022-11-23T00:33:42.513Z,98757.22
2022-11-23T00:36:13.935Z,98756.22
2022-11-23T00:38:41.680Z,98758.16
2022-11-23T00:41:17.485Z,98752.00
2022-11-23T00:43:43.917Z,98766.97
2022-11-23T00:46:13.899Z,98760.97
2022-11-23T00:48:40.621Z,98763.31
2022-11-23T00:51:09.775Z,98755.81
2022-11-23T00:53:36.588Z,98754.25
2022-11-23T00:56:03.595Z,98754.25
2022-11-23T00:58:30.091Z,98761.69
2022-11-23T01:01:09.798Z,98763.53
2022-11-23T01:03:38.859Z,98754.25
2022-11-23T01:06:11.479Z,98763.06
2022-11-23T01:08:39.156Z,98774.44
2022-11-23T01:11:11.310Z,98773.56
2022-11-23T01:13:40.031Z,98769.38
2022-11-23T01:16:28.096Z,98771.78
2022-11-23T01:18:56.235Z,98770.84
2022-11-23T01:21:23.377Z,98776.88
2022-11-23T01:23:49.844Z,98779.09
2022-11-23T01:26:16.421Z,98776.75
2022-11-23T01:28:42.995Z,98783.84
2022-11-23T01:31:12.496Z,98784.69
2022-11-23T01:33:39.576Z,98791.56
2022-11-23T01:36:26.900Z,98790.94
2022-11-23T01:38:55.389Z,98792.75
2022-11-23T01:41:24.291Z,98789.91
2022-11-23T01:43:51.568Z,98794.13
2022-11-23T01:46:18.383Z,98792.75
2022-11-23T01:48:49.200Z,98785.47
2022-11-23T01:51:37.592Z,98787.53
2022-11-23T01:54:09.909Z,98785.66
2022-11-23T01:56:42.272Z,98792.00
2022-11-23T01:59:13.045Z,98796.22
2022-11-23T02:01:39.424Z,98791.50
2022-11-23T02:04:08.577Z,98792.06
2022-11-23T02:06:35.202Z,98790.22
2022-11-23T02:09:02.199Z,98792.06
2022-11-23T02:11:28.860Z,98797.50
2022-11-23T02:13:57.021Z,98797.94
2022-11-23T02:16:23.563Z,98787.34
2022-11-23T02:18:51.094Z,98796.28
2022-11-23T02:21:17.692Z,98796.34
2022-11-23T02:24:10.113Z,98797.50
2022-11-23T02:26:36.918Z,98795.22
2022-11-23T02:29:06.220Z,98802.38
2022-11-23T02:31:32.686Z,98804.19
2022-11-23T02:33:59.168Z,98804.97
2022-11-23T02:36:32.565Z,98804.19
2022-11-23T02:39:01.743Z,98790.00
2022-11-23T02:41:28.119Z,98789.63
2022-11-23T02:43:56.813Z,98791.97
2022-11-23T02:46:23.216Z,98790.19
2022-11-23T02:48:49.528Z,98793.34
2022-11-23T02:51:15.984Z,98790.41
2022-11-23T02:53:42.331Z,98794.22
2022-11-23T02:56:08.656Z,98786.50
2022-11-23T02:58:35.005Z,98785.63
2022-11-23T03:01:01.456Z,98782.91
2022-11-23T03:03:27.843Z,98787.84
2022-11-23T03:05:54.217Z,98786.91
2022-11-23T03:08:20.595Z,98794.28
2022-11-23T03:10:46.974Z,98795.94
2022-11-23T03:13:13.379Z,98790.69
2022-11-23T03:15:39.760Z,98799.28
2022-11-23T03:18:06.221Z,98789.91
2022-11-23T03:20:32.636Z,98796.16
2022-11-23T03:22:59.019Z,98788.91
2022-11-23T03:25:25.358Z,98786.34
2022-11-23T03:27:51.719Z,98792.22
2022-11-23T03:30:18.191Z,98793.22
2022-11-23T03:32:44.616Z,98797.09
2022-11-23T03:35:11.020Z,98785.47
2022-11-23T03:37:37.354Z,98798.94
2022-11-23T03:40:03.968Z,98794.22
2022-11-23T03:42:30.353Z,98796.72
2022-11-23T03:44:56.741Z,98799.50
2022-11-23T03:47:23.207Z,98800.53
2022-11-23T03:49:49.563Z,98805.03
2022-11-23T03:52:15.980Z,98804.22
2022-11-23T03:54:42.481Z,98806.16
2022-11-23T03:57:08.972Z,98799.78
2022-11-23T03:59:35.364Z,98803.16
2022-11-23T04:02:01.753Z,98792.69
2022-11-23T04:04:28.151Z,98798.59
2022-11-23T04:06:54.600Z,98803.59
2022-11-23T04:09:21.052Z,98808.03
2022-11-23T04:11:47.704Z,98807.31
2022-11-23T04:14:14.071Z,98803.16
2022-11-23T04:16:40.393Z,98799.13
2022-11-23T04:19:06.799Z,98801.22
2022-11-23T04:21:33.141Z,98799.28
2022-11-23T04:23:59.812Z,98801.78
2022-11-23T04:26:26.183Z,98805.94
2022-11-23T04:28:52.555Z,98797.72
2022-11-23T04:31:18.896Z,98796.50
2022-11-23T04:33:45.276Z,98798.22
2022-11-23T04:36:11.752Z,98793.69
2022-11-23T04:38:38.156Z,98801.78
2022-11-23T04:41:04.730Z,98801.22
2022-11-23T04:43:31.841Z,98799.66
2022-11-23T04:45:58.192Z,98799.22
2022-11-23T04:48:24.567Z,98797.94
2022-11-23T04:50:55.477Z,98802.38
2022-11-23T04:53:22.237Z,98799.50
2022-11-23T04:55:48.635Z,98795.94
2022-11-23T04:58:14.979Z,98799.78
2022-11-23T05:00:41.431Z,98802.50
2022-11-23T05:03:07.865Z,98797.94
2022-11-23T05:05:34.256Z,98799.84
2022-11-23T05:08:00.773Z,98800.22
2022-11-23T05:10:27.272Z,98801.47
2022-11-23T05:12:53.607Z,98808.03
2022-11-23T05:15:19.985Z,98800.06
2022-11-23T05:17:46.374Z,98804.50
2022-11-23T05:20:13.261Z,98805.91
2022-11-23T05:22:39.746Z,98805.06
2022-11-23T05:25:06.631Z,98803.25
2022-11-23T05:27:33.439Z,98799.38
2022-11-23T05:29:59.857Z,98800.72
2022-11-23T05:32:26.225Z,98808.59
2022-11-23T05:34:52.615Z,98806.22
2022-11-23T05:37:19.039Z,98813.88
2022-11-23T05:39:45.475Z,98808.81
2022-11-23T05:42:11.792Z,98810.81
2022-11-23T05:44:38.248Z,98810.03
2022-11-23T05:47:04.744Z,98816.13
2022-11-23T05:49:31.507Z,98811.69
2022-11-23T05:51:58.202Z,98816.44
2022-11-23T05:54:24.615Z,98811.16
2022-11-23T05:56:50.981Z,98815.50
2022-11-23T05:59:17.349Z,98819.88
2022-11-23T06:01:43.801Z,98826.09
2022-11-23T06:04:10.326Z,98818.94
2022-11-23T06:06:36.784Z,98821.19
2022-11-23T06:09:03.318Z,98821.56
2022-11-23T06:11:31.172Z,98820.47
2022-11-23T06:13:57.552Z,98828.44
2022-11-23T06:16:24.405Z,98825.41
2022-11-23T06:18:50.735Z,98819.41
2022-11-23T06:21:17.072Z,98823.84
2022-11-23T06:23:43.539Z,98823.47
2022-11-23T06:26:09.927Z,98825.47
2022-11-23T06:28:36.993Z,98824.69
2022-11-23T06:31:05.755Z,98814.00
2022-11-23T06:33:35.685Z,98826.31
2022-11-23T06:36:03.499Z,98828.03
2022-11-23T06:38:30.186Z,98818.06
2022-11-23T06:41:00.559Z,98823.38
2022-11-23T06:43:27.912Z,98832.16
2022-11-23T06:45:57.664Z,98837.63
2022-11-23T06:48:24.391Z,98843.78
2022-11-23T06:50:50.867Z,98854.38
2022-11-23T06:53:18.172Z,98854.13
2022-11-23T06:55:44.567Z,98855.19
2022-11-23T06:58:11.538Z,98855.19
2022-11-23T07:00:37.954Z,98851.59
2022-11-23T07:03:04.307Z,98857.03
2022-11-23T07:05:30.632Z,98858.66
2022-11-23T07:07:57.312Z,98858.28
2022-11-23T07:10:23.707Z,98864.84
2022-11-23T07:12:50.065Z,98859.91
2022-11-23T07:15:16.504Z,98868.66
2022-11-23T07:17:44.566Z,98869.53
2022-11-23T07:20:12.753Z,98868.03
2022-11-23T07:22:39.235Z,98863.59
2022-11-23T07:25:06.283Z,98873.84
2022-11-23T07:27:32.677Z,98866.22
2022-11-23T07:29:59.108Z,98869.72
2022-11-23T07:32:25.465Z,98878.16
2022-11-23T07:34:51.819Z,98880.44
2022-11-23T07:37:18.250Z,98879.66
2022-11-23T07:40:00.683Z,98874.78
2022-11-23T07:42:39.936Z,98878.47
2022-11-23T07:45:09.886Z,98880.41
2022-11-23T07:47:36.948Z,98872.78
2022-11-23T07:50:05.024Z,98863.69
2022-11-23T07:52:31.510Z,98871.53
2022-11-23T07:54:57.947Z,98873.16
2022-11-23T07:57:24.315Z,98872.22
2022-11-23T07:59:50.687Z,98868.00
2022-11-23T08:02:17.240Z,98868.97
2022-11-23T08:04:43.735Z,98868.72
2022-11-23T08:07:10.537Z,98870.00
2022-11-23T08:09:37.112Z,98877.31
2022-11-23T08:12:03.565Z,98877.59
2022-11-23T08:14:30.418Z,98872.94
2022-11-23T08:16:57.376Z,98873.53
2022-11-23T08:19:23.728Z,98872.31
2022-11-23T08:21:50.189Z,98871.38
2022-11-23T08:24:16.613Z,98867.56
2022-11-23T08:26:43.039Z,98872.09
2022-11-23T08:29:09.420Z,98873.94
2022-11-23T08:31:35.780Z,98879.03
2022-11-23T08:34:03.702Z,98875.81
2022-11-23T08:36:30.358Z,98881.50
2022-11-23T08:38:56.769Z,98887.66
2022-11-23T08:41:23.117Z,98887.28
2022-11-23T08:43:50.515Z,98895.97
2022-11-23T08:46:17.360Z,98898.56
2022-11-23T08:48:43.801Z,98894.75
2022-11-23T08:51:10.617Z,98887.97
2022-11-23T08:53:37.155Z,98889.97
2022-11-23T08:56:05.024Z,98888.03
2022-11-23T08:58:32.147Z,98889.44
2022-11-23T09:00:58.947Z,98891.69
2022-11-23T09:03:25.499Z,98889.56
2022-11-23T09:05:51.832Z,98890.16
2022-11-23T09:08:18.247Z,98888.13
2022-11-23T09:10:44.613Z,98885.63
2022-11-23T09:13:10.938Z,98891.00
2022-11-23T09:15:37.388Z,98893.91
2022-11-23T09:18:03.758Z,98888.09
2022-11-23T09:20:30.699Z,98891.53
2022-11-23T09:22:57.084Z,98892.03
2022-11-23T09:25:23.659Z,98891.59
2022-11-23T09:27:50.144Z,98888.66
2022-11-23T09:30:17.251Z,98888.47
2022-11-23T09:32:43.655Z,98891.47
2022-11-23T09:35:10.096Z,98889.03
2022-11-23T09:37:36.602Z,98888.38
2022-11-23T09:40:03.772Z,98894.63
2022-11-23T09:42:57.817Z,98891.81
2022-11-23T09:45:47.994Z,98893.47
2022-11-23T09:48:32.715Z,98893.78
2022-11-23T09:51:13.858Z,98891.53
2022-11-23T09:53:44.675Z,98894.56
2022-11-23T09:56:18.966Z,98892.16
2022-11-23T09:58:45.427Z,98884.00
2022-11-23T10:01:16.490Z,98889.88
2022-11-23T10:03:48.719Z,98887.84
2022-11-23T10:06:21.936Z,98885.31
2022-11-23T10:09:12.779Z,98891.84
2022-11-23T10:11:55.043Z,98886.13
2022-11-23T10:14:58.006Z,98870.31
2022-11-23T10:17:40.864Z,98869.59
2022-11-23T10:20:10.243Z,98877.47
2022-11-23T10:22:59.342Z,98872.63
2022-11-23T10:25:28.948Z,98869.28
2022-11-23T10:28:00.897Z,98871.59
2022-11-23T10:30:27.327Z,98855.13
2022-11-23T10:32:58.111Z,98854.28
2022-11-23T10:35:30.751Z,98854.97
2022-11-23T10:38:18.086Z,98854.63
2022-11-23T10:41:12.150Z,98857.78
2022-11-23T10:43:46.287Z,98856.22
2022-11-23T10:46:32.046Z,98854.09
2022-11-23T10:49:29.601Z,98847.19
2022-11-23T10:52:06.095Z,98847.00
2022-11-23T10:54:51.133Z,98838.66
2022-11-23T10:57:34.841Z,98834.75
2022-11-23T11:00:16.019Z,98839.69
2022-11-23T11:02:48.963Z,98836.72
2022-11-23T11:08:30.374Z,98823.06
2022-11-23T11:10:59.472Z,98818.69
2022-11-23T11:13:41.809Z,98810.81
2022-11-23T11:16:35.309Z,98806.59
2022-11-23T11:19:26.963Z,98799.09
2022-11-23T11:21:53.492Z,98793.63
2022-11-23T11:24:22.918Z,98791.88
2022-11-23T11:26:58.135Z,98785.09
2022-11-23T11:29:38.706Z,98780.06
2022-11-23T11:32:10.276Z,98781.72
2022-11-23T11:34:47.730Z,98770.53
2022-11-23T11:37:26.736Z,98764.47
2022-11-23T11:39:57.416Z,98767.97
2022-11-23T11:42:33.430Z,98761.44
2022-11-23T11:45:03.095Z,98755.53
2022-11-23T11:47:55.751Z,98760.22
2022-11-23T11:50:31.982Z,98758.00
2022-11-23T11:53:15.095Z,98755.19
2022-11-23T11:55:52.983Z,98753.38
2022-11-23T11:58:22.565Z,98754.97
2022-11-23T12:00:51.515Z,98755.78
2022-11-23T12:03:45.747Z,98749.00
2022-11-23T12:06:26.805Z,98744.63
2022-11-23T12:09:19.923Z,98742.75
2022-11-23T12:11:46.329Z,98738.09
2022-11-23T12:14:15.080Z,98735.06
2022-11-23T12:17:10.521Z,98728.72
2022-11-23T12:19:59.180Z,98733.38
2022-11-23T12:22:37.484Z,98726.34
2022-11-23T12:25:27.180Z,98727.66
2022-11-23T12:28:09.270Z,98721.13
2022-11-23T12:30:47.621Z,98738.41
2022-11-23T12:33:44.790Z,98735.03
2022-11-23T12:36:43.784Z,98738.53
2022-11-23T12:39:28.265Z,98714.72
2022-11-23T12:42:13.519Z,98729.88
2022-11-23T12:44:48.011Z,98722.38
2022-11-23T12:47:23.732Z,98728.38
2022-11-23T12:50:09.954Z,98724.63
2022-11-23T12:52:39.455Z,98723.72
2022-11-23T12:55:36.647Z,98712.88
2022-11-23T12:58:16.863Z,98710.56
2022-11-23T13:00:53.370Z,98709.13
2022-11-23T13:03:49.448Z,98709.41
2022-11-23T13:06:37.680Z,98703.44
2022-11-23T13:09:29.901Z,98712.09
2022-11-23T13:12:21.164Z,98694.78
2022-11-23T13:14:53.571Z,98700.75
2022-11-23T13:17:38.130Z,98699.00
2022-11-23T13:20:13.271Z,98687.75
2022-11-23T13:22:44.140Z,98687.47
2022-11-23T13:25:15.404Z,98680.88
2022-11-23T13:27:42.987Z,98681.31
2022-11-23T13:30:24.559Z,98673.06
2022-11-23T13:32:57.897Z,98677.19
2022-11-23T13:35:24.856Z,98660.53
2022-11-23T13:37:57.032Z,98666.31
2022-11-23T13:40:32.211Z,98662.59
2022-11-23T13:43:31.816Z,98661.94
2022-11-23T13:46:23.458Z,98651.81
2022-11-23T13:48:57.187Z,98652.00
2022-11-23T13:51:30.336Z,98645.81
2022-11-23T13:53:59.727Z,98653.72
2022-11-23T13:56:43.144Z,98645.31
2022-11-23T13:59:24.670Z,98646.00
2022-11-23T14:02:10.182Z,98644.34
2022-11-23T14:04:41.763Z,98635.59
2022-11-23T14:07:35.292Z,98634.00
2022-11-23T14:10:09.949Z,98634.16
2022-11-23T14:12:56.837Z,98632.72
2022-11-23T14:15:33.852Z,98640.50
2022-11-23T14:18:38.323Z,98636.66
2022-11-23T14:21:22.200Z,98639.38
2022-11-23T14:24:00.452Z,98648.06
2022-11-23T14:27:30.694Z,98638.78
2022-11-23T14:30:11.556Z,98638.47
2022-11-23T14:33:16.197Z,98637.84
2022-11-23T14:36:08.376Z,98643.41
2022-11-23T14:38:53.510Z,98634.41
2022-11-23T14:41:23.511Z,98627.91
2022-11-23T14:43:51.090Z,98634.72
2022-11-23T14:46:24.895Z,98637.28
2022-11-23T14:48:52.299Z,98647.34
2022-11-23T14:51:22.238Z,98647.41
2022-11-23T14:53:51.269Z,98649.13
2022-11-23T14:56:22.423Z,98648.69
2022-11-23T14:58:50.281Z,98650.50
2022-11-23T15:01:22.149Z,98651.13
2022-11-23T15:04:08.971Z,98656.91
2022-11-23T15:06:45.520Z,98666.00
2022-11-23T15:09:40.073Z,98660.59
2022-11-23T15:12:24.313Z,98654.81
2022-11-23T15:14:52.009Z,98661.44
2022-11-23T15:17:21.063Z,98653.16
2022-11-23T15:20:01.075Z,98652.84
2022-11-23T15:22:28.793Z,98647.75
2022-11-23T15:25:07.953Z,98656.81
2022-11-23T15:27:39.871Z,98656.25
2022-11-23T15:30:17.010Z,98663.63
2022-11-23T15:32:43.414Z,98666.50
2022-11-23T15:35:15.559Z,98653.88
2022-11-23T15:37:47.726Z,98656.97
2022-11-23T15:40:19.347Z,98664.63
2022-11-23T15:42:49.935Z,98670.50
2022-11-23T15:45:38.457Z,98659.41
2022-11-23T15:48:11.413Z,98669.88
2022-11-23T15:50:55.186Z,98681.91
2022-11-23T15:53:26.097Z,98685.47
2022-11-23T15:55:54.027Z,98684.09
2022-11-23T15:58:21.779Z,98692.19
2022-11-23T16:01:11.912Z,98693.31
2022-11-23T16:04:00.893Z,98700.47
2022-11-23T16:06:38.806Z,98697.31
2022-11-23T16:09:58.465Z,98704.69
2022-11-23T16:12:30.164Z,98720.00
2022-11-23T16:14:58.708Z,98718.28
2022-11-23T16:17:29.420Z,98722.03
2022-11-23T16:19:58.486Z,98729.16
2022-11-23T16:22:32.800Z,98738.16
2022-11-23T16:25:23.467Z,98733.06
2022-11-23T16:28:14.775Z,98742.91
2022-11-23T16:30:43.850Z,98747.75
2022-11-23T16:33:15.316Z,98750.69
2022-11-23T16:35:41.733Z,98770.28
2022-11-23T16:38:08.326Z,98768.66
2022-11-23T16:40:35.112Z,98772.16
2022-11-23T16:43:01.484Z,98777.78
2022-11-23T16:45:27.971Z,98779.88
2022-11-23T16:47:56.932Z,98777.59
2022-11-23T16:50:24.306Z,98788.63
2022-11-23T16:52:51.220Z,98788.63
2022-11-23T16:55:18.049Z,98805.41
2022-11-23T16:57:45.314Z,98798.66
2022-11-23T17:00:17.390Z,98800.16
2022-11-23T17:02:43.945Z,98812.31
2022-11-23T17:05:18.737Z,98816.50
2022-11-23T17:07:45.459Z,98833.47
2022-11-23T17:10:13.584Z,98834.03
2022-11-23T17:12:46.772Z,98836.66
2022-11-23T17:15:13.633Z,98838.06
2022-11-23T17:17:39.981Z,98846.97
2022-11-23T17:20:11.906Z,98852.38
2022-11-23T17:22:38.275Z,98849.69
2022-11-23T17:25:10.157Z,98848.00
2022-11-23T17:27:41.987Z,98846.59
2022-11-23T17:30:20.740Z,98840.97
2022-11-23T17:32:48.889Z,98843.50
2022-11-23T17:35:15.908Z,98844.41
2022-11-23T17:37:42.723Z,98841.13
2022-11-23T17:40:20.576Z,98849.72
2022-11-23T17:42:47.073Z,98847.06
2022-11-23T17:45:13.865Z,98856.25
2022-11-23T17:47:42.365Z,98858.44
2022-11-23T17:50:17.515Z,98857.31
2022-11-23T17:52:48.084Z,98867.00
2022-11-23T17:55:14.995Z,98868.38
2022-11-23T17:57:41.920Z,98881.63
2022-11-23T18:00:16.579Z,98877.00
2022-11-23T18:02:43.030Z,98887.50
2022-11-23T18:05:10.335Z,98885.59
2022-11-23T18:07:37.317Z,98888.50
2022-11-23T18:10:04.532Z,98897.03
2022-11-23T18:12:30.931Z,98893.47
2022-11-23T18:14:57.365Z,98896.09
2022-11-23T18:17:23.996Z,98902.53
2022-11-23T18:19:50.480Z,98901.03
2022-11-23T18:22:16.856Z,98912.81
2022-11-23T18:24:43.196Z,98917.38
2022-11-23T18:27:09.521Z,98920.81
2022-11-23T18:29:36.507Z,98917.81
2022-11-23T18:32:04.323Z,98919.50
2022-11-23T18:34:30.684Z,98917.91
2022-11-23T18:36:57.155Z,98927.25
2022-11-23T18:39:23.795Z,98922.56
2022-11-23T18:41:50.184Z,98926.84
2022-11-23T18:44:16.582Z,98929.25
2022-11-23T18:46:44.865Z,98937.28
2022-11-23T18:49:12.051Z,98946.59
2022-11-23T18:51:38.531Z,98943.72
2022-11-23T18:54:05.263Z,98944.94
2022-11-23T18:56:31.598Z,98953.34
2022-11-23T18:58:58.357Z,98961.63
2022-11-23T19:01:24.860Z,98961.69
2022-11-23T19:03:52.878Z,98966.84
2022-11-23T19:06:22.128Z,98970.72
2022-11-23T19:08:50.962Z,98976.06
2022-11-23T19:11:20.652Z,98975.59
2022-11-23T19:13:49.575Z,98992.41
2022-11-23T19:16:21.452Z,98982.09
2022-11-23T19:18:52.784Z,98989.31
2022-11-23T19:21:21.381Z,98994.41
2022-11-23T19:23:49.952Z,98996.94
2022-11-23T19:26:17.119Z,98995.59
2022-11-23T19:28:46.212Z,99002.22
2022-11-23T19:31:13.588Z,99008.19
2022-11-23T19:33:40.728Z,99020.69
2022-11-23T19:36:08.964Z,99028.63
2022-11-23T19:38:35.533Z,99039.94
2022-11-23T19:41:02.102Z,99043.47
2022-11-23T19:43:28.556Z,99046.63
2022-11-23T19:45:58.931Z,99051.41
2022-11-23T19:48:25.771Z,99047.19
2022-11-23T19:50:57.533Z,99059.63
2022-11-23T19:53:28.010Z,99063.47
2022-11-23T19:56:09.840Z,99062.53
2022-11-23T19:58:36.251Z,99060.59
2022-11-23T20:01:11.101Z,99064.06
2022-11-23T20:03:39.720Z,99075.31
2022-11-23T20:06:09.972Z,99077.47
2022-11-23T20:08:37.310Z,99074.66
2022-11-23T20:11:11.035Z,99091.78
2022-11-23T20:13:37.699Z,99086.34
2022-11-23T20:16:06.536Z,99078.84
2022-11-23T20:18:33.139Z,99076.19
2022-11-23T20:20:59.985Z,99093.09
2022-11-23T20:23:26.373Z,99096.53
2022-11-23T20:25:56.388Z,99113.59
2022-11-23T20:28:23.363Z,99106.59
2022-11-23T20:30:50.827Z,99111.41
2022-11-23T20:33:19.345Z,99120.34
2022-11-23T20:35:47.335Z,99129.19
2022-11-23T20:38:14.244Z,99139.84
2022-11-23T20:40:40.712Z,99138.31
2022-11-23T20:43:07.142Z,99146.13
2022-11-23T20:45:33.546Z,99146.06
2022-11-23T20:47:59.927Z,99149.75
2022-11-23T20:50:27.703Z,99155.22
2022-11-23T20:52:59.409Z,99160.63
2022-11-23T20:55:26.019Z,99160.78
2022-11-23T20:57:53.105Z,99159.06
2022-11-23T21:00:21.754Z,99165.28
2022-11-23T21:02:50.287Z,99167.78
2022-11-23T21:05:17.301Z,99173.38
2022-11-23T21:07:43.960Z,99181.25
2022-11-23T21:10:10.415Z,99184.66
2022-11-23T21:12:55.453Z,99189.88
2022-11-23T21:15:21.816Z,99187.81
2022-11-23T21:17:48.197Z,99186.22
2022-11-23T21:20:14.868Z,99196.78
2022-11-23T21:22:41.219Z,99201.81
2022-11-23T21:25:07.908Z,99214.50
2022-11-23T21:27:34.492Z,99215.97
2022-11-23T21:30:01.025Z,99220.59
2022-11-23T21:32:28.037Z,99232.41
2022-11-23T21:34:54.451Z,99235.06
2022-11-23T21:37:21.240Z,99237.09
2022-11-23T21:39:52.635Z,99238.53
2022-11-23T21:42:19.491Z,99239.00
2022-11-23T21:44:45.836Z,99250.72
2022-11-23T21:47:12.931Z,99247.22
2022-11-23T21:49:39.910Z,99258.47
2022-11-23T21:52:06.555Z,99258.50
2022-11-23T21:54:33.319Z,99258.63
2022-11-23T21:57:00.104Z,99258.22
2022-11-23T21:59:26.490Z,99261.91
2022-11-23T22:01:57.127Z,99260.69
2022-11-23T22:04:23.658Z,99268.97
2022-11-23T22:06:50.000Z,99275.13
2022-11-23T22:09:16.896Z,99271.88
2022-11-23T22:11:44.078Z,99278.53
2022-11-23T22:14:13.640Z,99271.22
2022-11-23T22:16:41.203Z,99273.56
2022-11-23T22:19:10.347Z,99272.06
2022-11-23T22:21:37.752Z,99287.69
2022-11-23T22:24:05.325Z,99283.09
2022-11-23T22:26:32.298Z,99286.66
2022-11-23T22:29:02.804Z,99298.75
2022-11-23T22:31:33.764Z,99289.06
2022-11-23T22:34:01.489Z,99296.22
2022-11-23T22:36:28.446Z,99297.91
2022-11-23T22:39:01.571Z,99302.66
2022-11-23T22:41:29.696Z,99304.09
2022-11-23T22:43:56.842Z,99305.34
2022-11-23T22:46:25.051Z,99306.13
2022-11-23T22:48:52.704Z,99310.03
2022-11-23T22:51:23.239Z,99311.84
2022-11-23T22:53:57.443Z,99319.47
2022-11-23T22:56:24.176Z,99325.31
2022-11-23T22:58:50.579Z,99324.19
2022-11-23T23:01:28.660Z,99326.38
2022-11-23T23:03:56.619Z,99331.94
2022-11-23T23:06:25.981Z,99323.34
2022-11-23T23:08:59.998Z,99334.69
2022-11-23T23:11:28.672Z,99342.44
2022-11-23T23:13:55.642Z,99341.72
2022-11-23T23:16:22.476Z,99349.97
2022-11-23T23:18:49.034Z,99367.88
2022-11-23T23:21:18.068Z,99363.41
2022-11-23T23:23:46.623Z,99366.31
2022-11-23T23:26:14.904Z,99366.47
2022-11-23T23:28:42.077Z,99366.25
2022-11-23T23:31:10.815Z,99371.97
2022-11-23T23:33:38.209Z,99373.03
2022-11-23T23:36:10.208Z,99375.47
2022-11-23T23:38:37.285Z,99379.09
2022-11-23T23:41:05.172Z,99379.09
2022-11-23T23:43:31.691Z,99382.88
2022-11-23T23:45:59.542Z,99388.31
2022-11-23T23:48:28.988Z,99378.75
2022-11-23T23:50:55.563Z,99380.91
2022-11-23T23:53:22.321Z,99377.31
2022-11-23T23:55:59.412Z,99374.13
2022-11-23T23:58:26.100Z,99385.81
